Time;durP1;ratioP1;P1;durP2;ratioP2;P2;SDS_P1;SDS_P2;PMS_P1;PMS_P2;Temp;Humidity;BMP_temperature;BMP_pressure;BME280_temperature;BME280_humidity;BME280_pressure;Samples;Min_cycle;Max_cycle;Signal;HPM_P1;HPM_P2
2023/12/22 00:01:05;;;;;;;17.00;9.80;;;;;;;2.02;77.99;97254.45;106667;1261;70138;-77
2023/12/22 00:03:32;;;;;;;15.20;10.30;;;;;;;1.99;78.20;97246.42;106914;1258;72903;-76
2023/12/22 00:06:01;;;;;;;19.00;10.70;;;;;;;2.08;78.00;97241.94;107932;1259;60418;-77
2023/12/22 00:08:28;;;;;;;12.70;9.80;;;;;;;2.10;77.76;97247.05;106299;1259;60995;-78
2023/12/22 00:10:56;;;;;;;14.70;10.90;;;;;;;2.06;78.00;97237.23;105862;1258;72976;-78
2023/12/22 00:13:23;;;;;;;17.00;11.00;;;;;;;2.01;78.09;97229.10;106611;1258;70749;-79
2023/12/22 00:15:51;;;;;;;15.80;10.20;;;;;;;2.02;78.20;97225.28;108187;1259;71412;-78
2023/12/22 00:18:18;;;;;;;15.90;10.30;;;;;;;2.10;77.90;97234.48;108617;1259;58010;-79
2023/12/22 00:20:46;;;;;;;17.10;11.60;;;;;;;2.10;77.80;97215.66;108699;1257;60399;-80
2023/12/22 00:23:13;;;;;;;15.20;11.00;;;;;;;2.07;77.87;97215.80;108302;1263;72725;-82
2023/12/22 00:25:41;;;;;;;14.60;10.00;;;;;;;2.05;77.83;97208.73;106078;1265;68869;-81
2023/12/22 00:28:08;;;;;;;16.30;10.90;;;;;;;2.05;77.84;97210.66;105797;1260;71851;-77
2023/12/22 00:30:36;;;;;;;18.70;10.90;;;;;;;2.13;77.70;97210.07;105726;1260;60554;-77
2023/12/22 00:33:04;;;;;;;15.50;10.50;;;;;;;2.10;77.80;97204.27;105700;1262;60458;-79
2023/12/22 00:35:31;;;;;;;16.50;11.40;;;;;;;2.04;77.83;97210.73;105671;1263;72865;-79
2023/12/22 00:37:58;;;;;;;15.40;9.90;;;;;;;1.99;78.08;97206.63;105631;1263;69218;-78
2023/12/22 00:40:26;;;;;;;13.80;9.40;;;;;;;2.04;78.02;97191.49;105544;1264;71442;-77
2023/12/22 00:42:54;;;;;;;14.60;8.70;;;;;;;2.08;77.90;97194.24;105461;1263;60531;-77
2023/12/22 00:45:21;;;;;;;14.70;10.20;;;;;;;2.02;77.95;97184.60;105474;1261;60617;-76
2023/12/22 00:47:49;;;;;;;15.40;10.50;;;;;;;1.94;78.39;97174.72;105648;1271;73897;-76
2023/12/22 00:50:17;;;;;;;16.20;10.70;;;;;;;1.90;78.39;97164.86;105776;1257;68936;-77
2023/12/22 00:52:44;;;;;;;15.00;9.90;;;;;;;1.96;78.33;97152.60;105574;1264;71453;-75
2023/12/22 00:55:12;;;;;;;14.90;10.10;;;;;;;2.00;78.01;97147.83;105970;1260;60508;-72
2023/12/22 00:57:39;;;;;;;15.80;10.10;;;;;;;1.99;78.11;97137.73;107173;1258;59289;-75
2023/12/22 01:00:10;;;;;;;15.20;10.20;;;;;;;1.96;77.94;97142.84;105573;1261;73041;-76
2023/12/22 01:02:38;;;;;;;12.80;8.80;;;;;;;1.94;78.04;97139.91;105597;1263;69220;-75
2023/12/22 01:05:06;;;;;;;12.80;9.80;;;;;;;2.05;77.71;97131.34;105811;1260;72778;-76
2023/12/22 01:07:34;;;;;;;13.40;9.70;;;;;;;2.11;77.29;97123.41;107043;1257;60432;-77
2023/12/22 01:10:03;;;;;;;20.70;10.70;;;;;;;2.10;77.37;97112.51;107151;1258;60304;-77
2023/12/22 01:12:31;;;;;;;17.50;10.80;;;;;;;2.08;77.31;97109.59;107590;1261;72572;-73
2023/12/22 01:14:58;;;;;;;15.00;10.40;;;;;;;2.07;77.25;97121.88;106824;1264;68867;-76
2023/12/22 01:17:26;;;;;;;15.50;10.00;;;;;;;2.07;77.33;97110.52;107779;1260;72475;-75
2023/12/22 01:19:54;;;;;;;16.00;10.30;;;;;;;2.16;77.09;97137.75;107579;1259;60555;-76
2023/12/22 01:22:22;;;;;;;16.50;10.00;;;;;;;2.21;76.84;97115.45;106474;1258;60556;-76
2023/12/22 01:24:50;;;;;;;16.80;9.60;;;;;;;2.17;76.83;97107.98;105929;1261;72805;-75
2023/12/22 01:27:18;;;;;;;13.20;9.70;;;;;;;2.13;76.79;97110.38;106128;1263;68696;-76
2023/12/22 01:29:45;;;;;;;15.30;8.90;;;;;;;2.08;77.09;97099.81;107128;1258;73833;-76
2023/12/22 01:32:13;;;;;;;16.00;9.70;;;;;;;2.13;77.18;97114.01;106195;1263;60474;-77
2023/12/22 01:34:40;;;;;;;33.40;20.50;;;;;;;2.14;77.16;97105.98;105788;1257;60349;-75
2023/12/22 01:37:09;;;;;;;14.90;10.80;;;;;;;2.08;77.16;97110.10;105783;1261;73836;-78
2023/12/22 01:39:36;;;;;;;15.70;10.00;;;;;;;2.01;77.32;97096.71;105644;1257;69093;-79
2023/12/22 01:42:04;;;;;;;14.00;9.60;;;;;;;1.97;77.64;97100.52;105822;1261;72515;-75
2023/12/22 01:44:31;;;;;;;14.60;10.10;;;;;;;2.03;77.57;97089.14;106840;1258;60325;-77
2023/12/22 01:46:59;;;;;;;14.60;9.40;;;;;;;2.06;77.38;97103.08;107094;1258;60432;-77
2023/12/22 01:49:26;;;;;;;14.50;10.30;;;;;;;2.03;77.32;97087.99;106209;1263;72600;-77
2023/12/22 01:51:54;;;;;;;17.70;10.20;;;;;;;1.99;77.52;97092.09;105729;1262;70283;-78
2023/12/22 01:54:22;;;;;;;13.90;9.60;;;;;;;1.95;77.51;97083.16;105540;1258;72753;-77
2023/12/22 01:56:49;;;;;;;12.20;9.50;;;;;;;2.01;77.51;97056.20;105566;1260;60858;-77
2023/12/22 01:59:17;;;;;;;14.60;9.80;;;;;;;2.07;77.22;97047.20;105531;1258;60445;-76
2023/12/22 02:01:45;;;;;;;14.80;9.40;;;;;;;2.03;77.36;97057.02;105580;1257;73856;-75
2023/12/22 02:04:14;;;;;;;23.70;13.00;;;;;;;1.99;77.08;97038.88;105334;1265;70427;-74
2023/12/22 02:06:42;;;;;;;17.10;10.90;;;;;;;1.94;77.42;97046.70;105353;1259;72708;-74
2023/12/22 02:09:10;;;;;;;13.50;9.30;;;;;;;1.92;77.29;97054.16;105484;1261;60411;-73
2023/12/22 02:11:38;;;;;;;14.00;10.10;;;;;;;2.02;77.21;97049.02;105708;1263;60548;-74
2023/12/22 02:14:06;;;;;;;13.20;9.40;;;;;;;2.04;77.00;97056.05;105502;1263;73915;-76
2023/12/22 02:16:54;;;;;;;15.00;9.90;;;;;;;1.99;76.93;97045.44;105564;1262;68241;-79
2023/12/22 02:19:28;;;;;;;19.50;9.90;;;;;;;1.94;77.09;97043.39;105635;1262;72718;-76
2023/12/22 02:22:03;;;;;;;14.80;9.30;;;;;;;1.92;77.12;97028.48;105521;1261;60967;-76
2023/12/22 02:24:36;;;;;;;14.60;9.50;;;;;;;2.04;76.87;97017.44;105446;1263;60541;-78
2023/12/22 02:27:42;;;;;;;14.90;9.90;;;;;;;2.10;76.69;97008.96;105474;1263;73869;-77
2023/12/22 02:30:13;;;;;;;16.90;10.30;;;;;;;2.07;76.47;97014.83;105649;1261;70772;-78
2023/12/22 02:32:43;;;;;;;14.30;10.20;;;;;;;2.06;76.49;97013.98;105529;1265;72721;-75
2023/12/22 02:35:14;;;;;;;15.40;9.60;;;;;;;2.03;76.42;97018.13;105983;1258;60436;-76
2023/12/22 02:37:42;;;;;;;17.40;10.20;;;;;;;2.06;76.51;97013.05;106188;1258;60571;-77
2023/12/22 02:40:10;;;;;;;15.00;9.80;;;;;;;2.17;76.28;97009.38;107912;1257;73791;-75
2023/12/22 02:42:38;;;;;;;16.70;9.60;;;;;;;2.19;76.03;97004.41;108337;1257;68758;-75
2023/12/22 02:45:06;;;;;;;16.50;9.90;;;;;;;2.16;76.13;97005.91;106005;1258;71593;-75
2023/12/22 02:47:33;;;;;;;17.60;10.10;;;;;;;2.13;76.10;96990.56;105819;1261;60316;-75
2023/12/22 02:50:01;;;;;;;12.90;9.30;;;;;;;2.11;76.23;96998.55;105709;1257;61106;-77
2023/12/22 02:52:28;;;;;;;13.30;9.30;;;;;;;2.18;75.97;96999.93;105492;1258;72603;-76
2023/12/22 02:54:56;;;;;;;14.00;9.60;;;;;;;2.20;75.96;96993.26;105448;1263;69276;-76
2023/12/22 02:57:23;;;;;;;13.90;9.50;;;;;;;2.15;76.05;96992.95;105372;1257;73318;-76
2023/12/22 02:59:51;;;;;;;13.60;9.80;;;;;;;2.10;76.21;96993.54;105455;1257;61501;-78
2023/12/22 03:02:18;;;;;;;17.10;8.70;;;;;;;2.08;76.17;96988.67;105566;1257;60430;-79
2023/12/22 03:04:46;;;;;;;13.40;9.80;;;;;;;2.17;76.03;96981.38;105473;1264;74044;-77
2023/12/22 03:07:14;;;;;;;15.80;10.40;;;;;;;2.21;75.79;96972.27;105542;1261;69165;-79
2023/12/22 03:09:42;;;;;;;13.80;9.80;;;;;;;2.16;75.84;96974.35;105630;1261;71720;-83
2023/12/22 03:12:10;;;;;;;12.70;9.70;;;;;;;2.13;75.88;96961.06;105518;1260;61418;-77
2023/12/22 03:14:37;;;;;;;15.80;9.60;;;;;;;2.09;75.99;96966.60;105153;1261;468594;-80
2023/12/22 03:20:00;;;;;;;14.10;9.50;;;;;;;2.23;76.02;96963.80;103016;1291;614433;-78
2023/12/22 03:22:27;;;;;;;14.30;9.80;;;;;;;2.19;75.84;96955.29;105527;1266;59388;-78
2023/12/22 03:24:54;;;;;;;15.80;10.80;;;;;;;2.15;75.95;96963.58;105451;1266;59360;-78
2023/12/22 03:27:20;;;;;;;15.00;10.40;;;;;;;2.11;76.15;96958.14;105296;1271;72265;-77
2023/12/22 03:29:47;;;;;;;19.50;11.70;;;;;;;2.13;76.21;96952.48;106415;1266;69067;-77
2023/12/22 03:32:14;;;;;;;13.60;9.90;;;;;;;2.21;76.15;96944.42;107781;1264;173008;-79
2023/12/22 03:34:41;;;;;;;15.70;9.50;;;;;;;2.21;76.03;96951.05;107876;1266;59382;-80
2023/12/22 03:37:08;;;;;;;15.60;10.60;;;;;;;2.16;76.15;96952.33;105901;1267;59241;-78
2023/12/22 03:39:34;;;;;;;15.50;10.40;;;;;;;2.09;76.25;96955.09;105926;1267;72139;-79
2023/12/22 03:42:01;;;;;;;13.50;10.00;;;;;;;2.03;76.72;96958.79;105802;1266;70100;-77
2023/12/22 03:44:28;;;;;;;14.10;10.00;;;;;;;2.09;76.54;96947.83;105569;1267;72660;-81
2023/12/22 03:46:56;;;;;;;13.60;10.70;;;;;;;2.09;76.54;96939.00;105682;1257;59650;-79
2023/12/22 03:49:22;;;;;;;15.10;10.40;;;;;;;2.06;76.71;96934.90;105720;1261;59747;-78
2023/12/22 03:51:49;;;;;;;16.20;11.10;;;;;;;2.00;77.05;96951.48;105691;1256;71459;-79
2023/12/22 03:54:17;;;;;;;15.30;10.00;;;;;;;1.97;77.21;96968.06;105783;1256;70410;-77
2023/12/22 03:56:44;;;;;;;15.60;11.90;;;;;;;2.04;77.06;96977.17;105740;1262;72869;-79
2023/12/22 03:59:10;;;;;;;18.30;11.50;;;;;;;2.04;77.10;96981.92;105564;1256;59799;-82
2023/12/22 04:01:37;;;;;;;18.00;11.40;;;;;;;1.95;77.69;96982.25;106106;1258;59569;-79
2023/12/22 04:04:04;;;;;;;14.20;10.50;;;;;;;1.88;77.95;96973.50;106884;1261;71597;-76
2023/12/22 04:06:31;;;;;;;15.60;11.60;;;;;;;1.90;77.96;96971.77;106669;1254;70333;-79
2023/12/22 04:08:58;;;;;;;16.40;11.90;;;;;;;1.95;77.92;96976.70;106674;1256;71081;-78
2023/12/22 04:11:25;;;;;;;16.50;11.90;;;;;;;1.89;78.23;96968.92;106423;1253;59982;-79
2023/12/22 04:13:51;;;;;;;17.00;11.60;;;;;;;1.83;78.38;96958.50;106128;1253;60070;-80
2023/12/22 04:16:18;;;;;;;16.30;11.40;;;;;;;1.79;78.73;96961.95;106022;1253;72923;-77
2023/12/22 04:18:45;;;;;;;14.10;10.60;;;;;;;1.86;78.69;96953.46;106199;1254;70125;-79
2023/12/22 04:21:12;;;;;;;16.00;11.50;;;;;;;1.90;78.74;96953.91;107979;1254;71066;-76
2023/12/22 04:23:39;;;;;;;19.30;12.60;;;;;;;1.85;79.01;96947.61;106320;1254;59704;-79
2023/12/22 04:26:05;;;;;;;18.00;12.80;;;;;;;1.79;79.43;96945.88;108462;1256;60107;-77
2023/12/22 04:28:32;;;;;;;15.10;11.00;;;;;;;1.74;79.50;96938.52;109166;1253;70721;-78
2023/12/22 04:30:59;;;;;;;20.50;13.60;;;;;;;1.82;79.88;96941.89;106636;1256;68778;-77
2023/12/22 04:33:26;;;;;;;15.10;12.40;;;;;;;1.84;79.72;96937.36;106270;1256;72731;-78
2023/12/22 04:35:53;;;;;;;16.80;12.10;;;;;;;1.74;80.14;96935.82;106163;1253;59714;-76
2023/12/22 04:38:19;;;;;;;15.00;10.60;;;;;;;1.66;80.45;96935.03;106049;1259;59617;-77
2023/12/22 04:40:46;;;;;;;16.00;10.90;;;;;;;1.66;80.51;96928.23;105943;1253;59639;-77
2023/12/22 04:43:13;;;;;;;14.20;10.90;;;;;;;1.70;80.41;96931.71;105802;1253;69123;-75
2023/12/22 04:45:39;;;;;;;17.70;11.70;;;;;;;1.64;80.66;96920.95;105792;1259;72880;-77
2023/12/22 04:48:06;;;;;;;15.90;12.20;;;;;;;1.57;80.74;96924.56;106045;1253;59737;-76
2023/12/22 04:50:33;;;;;;;17.10;10.50;;;;;;;1.53;81.12;96918.52;106034;1253;60195;-76
2023/12/22 04:53:00;;;;;;;16.60;11.00;;;;;;;1.60;80.78;96910.08;105989;1257;73151;-74
2023/12/22 04:55:26;;;;;;;14.90;10.90;;;;;;;1.65;80.63;96909.69;105895;1259;70341;-77
2023/12/22 04:57:53;;;;;;;16.60;11.00;;;;;;;1.61;80.81;96910.20;105902;1258;72490;-77
2023/12/22 05:00:20;;;;;;;18.00;12.60;;;;;;;1.54;81.02;96913.50;105964;1253;59645;-76
2023/12/22 05:02:47;;;;;;;16.10;11.60;;;;;;;1.50;81.43;96915.27;105960;1253;59641;-76
2023/12/22 05:05:14;;;;;;;13.60;10.40;;;;;;;1.56;81.59;96917.05;106184;1257;73118;-77
2023/12/22 05:07:40;;;;;;;20.10;13.50;;;;;;;1.55;81.84;96903.88;105791;1256;70141;-75
2023/12/22 05:10:08;;;;;;;15.90;12.10;;;;;;;1.48;82.21;96899.84;105683;1256;72861;-74
2023/12/22 05:12:35;;;;;;;15.90;11.60;;;;;;;1.40;82.77;96897.98;105907;1255;61247;-76
2023/12/22 05:15:01;;;;;;;17.30;11.90;;;;;;;1.43;83.03;96897.92;106042;1253;59708;-77
2023/12/22 05:17:29;;;;;;;15.60;12.20;;;;;;;1.45;82.91;96899.83;105961;1257;73054;-76
2023/12/22 05:19:55;;;;;;;18.60;13.00;;;;;;;1.40;83.38;96891.88;107633;1256;68837;-74
2023/12/22 05:22:22;;;;;;;17.10;11.40;;;;;;;1.35;83.86;96887.87;108797;1253;71108;-74
2023/12/22 05:24:48;;;;;;;17.90;12.20;;;;;;;1.40;83.84;96885.36;106999;1257;60966;-75
2023/12/22 05:27:15;;;;;;;15.40;10.50;;;;;;;1.49;83.53;96885.60;106640;1253;60440;-73
2023/12/22 05:29:42;;;;;;;18.10;12.10;;;;;;;1.46;83.43;96882.55;106454;1258;59719;-75
2023/12/22 05:32:08;;;;;;;18.00;12.10;;;;;;;1.40;83.75;96889.19;106368;1259;70109;-76
2023/12/22 05:34:36;;;;;;;17.90;12.10;;;;;;;1.36;84.06;96879.67;106085;1254;72908;-76
2023/12/22 05:37:03;;;;;;;21.30;12.70;;;;;;;1.44;84.04;96880.71;106470;1258;61021;-76
2023/12/22 05:39:30;;;;;;;21.10;13.00;;;;;;;1.48;84.13;96876.94;106123;1258;60164;-77
2023/12/22 05:41:56;;;;;;;20.10;14.00;;;;;;;1.43;84.43;96874.05;106042;1255;71630;-77
2023/12/22 05:44:24;;;;;;;17.80;11.90;;;;;;;1.37;84.76;96874.41;106326;1253;68839;-74
2023/12/22 05:46:50;;;;;;;19.50;14.00;;;;;;;1.43;84.78;96874.61;106372;1259;72546;-75
2023/12/22 05:49:17;;;;;;;20.30;13.70;;;;;;;1.45;84.82;96876.61;106028;1253;59641;-77
2023/12/22 05:51:44;;;;;;;18.40;12.90;;;;;;;1.38;85.02;96885.48;106026;1257;59533;-77
2023/12/22 05:54:11;;;;;;;20.80;12.90;;;;;;;1.33;85.40;96873.47;106241;1258;73275;-74
2023/12/22 05:56:38;;;;;;;16.70;11.90;;;;;;;1.40;85.45;96857.66;106426;1253;70397;-75
2023/12/22 05:59:05;;;;;;;17.30;12.10;;;;;;;1.42;85.69;96863.60;106340;1253;73718;-75
2023/12/22 06:01:32;;;;;;;18.00;13.00;;;;;;;1.37;86.09;96855.31;106818;1259;59538;-77
2023/12/22 06:03:59;;;;;;;17.40;12.60;;;;;;;1.34;86.33;96854.21;106992;1258;60200;-77
2023/12/22 06:06:27;;;;;;;17.70;11.80;;;;;;;1.40;86.17;96854.30;106147;1259;71754;-79
2023/12/22 06:08:54;;;;;;;17.10;12.20;;;;;;;1.48;85.85;96854.14;106352;1254;70103;-80
2023/12/22 06:11:21;;;;;;;19.70;12.20;;;;;;;1.46;85.82;96864.67;106499;1257;71757;-79
2023/12/22 06:13:49;;;;;;;19.50;11.80;;;;;;;1.41;85.83;96864.48;107599;1253;59560;-77
2023/12/22 06:16:18;;;;;;;16.30;11.10;;;;;;;1.43;86.00;96868.38;108981;1253;59252;-78
2023/12/22 06:18:45;;;;;;;18.20;12.70;;;;;;;1.52;85.68;96867.02;107794;1256;71199;-80
2023/12/22 06:21:12;;;;;;;18.30;13.30;;;;;;;1.51;85.59;96871.02;106379;1258;70326;-79
2023/12/22 06:23:39;;;;;;;17.20;12.00;;;;;;;1.44;85.68;96849.84;106623;1257;72617;-78
2023/12/22 06:26:10;;;;;;;16.30;11.50;;;;;;;1.40;86.07;96851.41;107182;1253;61107;-79
2023/12/22 06:28:38;;;;;;;16.20;12.00;;;;;;;1.48;86.05;96844.90;107350;1253;62190;-79
2023/12/22 06:31:06;;;;;;;16.10;11.50;;;;;;;1.56;86.03;96849.96;107336;1254;71757;-78
2023/12/22 06:33:32;;;;;;;15.90;11.90;;;;;;;1.54;85.96;96852.86;106974;1257;70214;-79
2023/12/22 06:35:59;;;;;;;23.00;13.20;;;;;;;1.47;86.07;96838.23;106986;1257;72738;-79
2023/12/22 06:38:26;;;;;;;17.20;10.70;;;;;;;1.42;86.28;96835.16;107044;1258;59770;-80
2023/12/22 06:40:53;;;;;;;17.10;12.00;;;;;;;1.48;86.33;96840.48;107988;1255;60243;-82
2023/12/22 06:43:20;;;;;;;17.10;12.20;;;;;;;1.50;86.26;96837.81;108516;1253;70509;-81
2023/12/22 06:45:47;;;;;;;17.00;12.20;;;;;;;1.47;86.73;96832.25;108270;1254;70501;-81
2023/12/22 06:48:15;;;;;;;19.10;12.90;;;;;;;1.41;86.86;96822.51;108386;1254;72573;-80
2023/12/22 06:50:44;;;;;;;19.40;12.70;;;;;;;1.35;87.34;96823.48;108037;1259;59682;-80
2023/12/22 06:53:11;;;;;;;16.00;11.10;;;;;;;1.37;87.36;96834.06;108345;1255;59366;-80
2023/12/22 06:55:51;;;;;;;18.10;12.00;;;;;;;1.39;87.36;96820.83;108833;1254;71556;-81
2023/12/22 06:58:21;;;;;;;17.70;12.20;;;;;;;1.31;87.78;96820.69;108615;1256;69142;-80
2023/12/22 07:00:48;;;;;;;17.90;11.80;;;;;;;1.24;88.05;96823.81;108218;1258;71153;-81
2023/12/22 07:03:16;;;;;;;14.90;11.40;;;;;;;1.23;88.63;96820.91;108002;1254;59573;-80
2023/12/22 07:05:43;;;;;;;17.90;12.20;;;;;;;1.27;88.87;96814.00;107947;1259;59352;-80
2023/12/22 07:08:09;;;;;;;18.20;12.40;;;;;;;1.23;89.37;96817.48;108381;1254;71542;-79
2023/12/22 07:10:36;;;;;;;18.30;13.20;;;;;;;1.15;89.59;96804.14;109211;1254;69583;-80
2023/12/22 07:13:03;;;;;;;18.20;12.20;;;;;;;1.09;90.44;96811.79;108631;1253;71335;-82
2023/12/22 07:15:32;;;;;;;17.60;11.90;;;;;;;1.15;90.35;96808.20;107778;1257;59907;-80
2023/12/22 07:17:59;;;;;;;19.50;14.10;;;;;;;1.22;90.44;96805.92;107380;1260;59724;-81
2023/12/22 07:20:26;;;;;;;20.70;14.20;;;;;;;1.19;90.63;96800.86;107076;1255;70636;-80
2023/12/22 07:22:53;;;;;;;22.80;15.30;;;;;;;1.14;91.14;96798.16;107628;1253;68931;-81
2023/12/22 07:25:22;;;;;;;20.30;13.10;;;;;;;1.10;91.46;96806.94;107587;1255;71447;-79
2023/12/22 07:27:49;;;;;;;16.40;12.70;;;;;;;1.16;91.59;96807.85;107322;1257;60879;-79
2023/12/22 07:30:16;;;;;;;20.00;13.60;;;;;;;1.20;91.68;96809.96;106858;1256;60497;-77
2023/12/22 07:32:47;;;;;;;21.40;13.70;;;;;;;1.14;92.37;96799.14;106082;1260;73684;-78
2023/12/22 07:35:14;;;;;;;21.50;13.80;;;;;;;1.08;93.19;96790.16;106215;1257;70233;-78
2023/12/22 07:37:43;;;;;;;23.00;14.30;;;;;;;1.11;93.80;96797.21;106254;1253;71136;-77
2023/12/22 07:40:11;;;;;;;20.10;13.70;;;;;;;1.15;93.66;96789.30;106207;1255;60511;-78
2023/12/22 07:42:39;;;;;;;17.70;12.10;;;;;;;1.09;94.23;96797.48;106136;1259;60429;-77
2023/12/22 07:45:07;;;;;;;16.70;11.80;;;;;;;1.03;94.73;96794.05;106200;1254;73904;-78
2023/12/22 07:47:34;;;;;;;24.20;12.80;;;;;;;1.07;94.91;96798.98;106376;1256;70276;-77
2023/12/22 07:50:01;;;;;;;15.80;11.60;;;;;;;1.10;94.94;96798.58;106003;1260;72661;-79
2023/12/22 07:52:30;;;;;;;19.00;12.10;;;;;;;1.05;95.46;96789.27;106403;1257;60412;-76
2023/12/22 07:54:57;;;;;;;15.80;11.90;;;;;;;0.99;95.41;96794.14;106141;1256;60512;-78
2023/12/22 07:57:24;;;;;;;16.60;12.20;;;;;;;1.03;95.34;96791.71;106100;1260;73302;-80
2023/12/22 07:59:52;;;;;;;19.60;12.50;;;;;;;1.07;95.20;96777.48;107735;1255;69116;-78
2023/12/22 08:02:20;;;;;;;19.30;12.90;;;;;;;1.04;95.35;96783.46;107702;1253;71353;-78
2023/12/22 08:04:48;;;;;;;19.90;12.50;;;;;;;1.01;95.33;96776.11;109015;1253;59674;-80
2023/12/22 08:07:15;;;;;;;18.20;11.80;;;;;;;1.10;95.20;96782.55;107885;1259;60409;-78
2023/12/22 08:09:42;;;;;;;15.50;12.10;;;;;;;1.16;95.09;96783.70;106227;1259;73642;-79
2023/12/22 08:12:09;;;;;;;21.40;14.10;;;;;;;1.15;95.19;96771.84;106273;1260;70026;-78
2023/12/22 08:14:36;;;;;;;19.90;13.30;;;;;;;1.12;95.41;96768.34;106196;1258;71313;-79
2023/12/22 08:17:03;;;;;;;19.00;12.70;;;;;;;1.17;95.02;96765.27;106642;1253;61121;-81
2023/12/22 08:19:30;;;;;;;18.80;13.50;;;;;;;1.28;94.73;96762.02;106396;1258;60414;-82
2023/12/22 08:21:58;;;;;;;23.40;13.40;;;;;;;1.28;94.74;96757.84;106189;1254;72331;-80
2023/12/22 08:24:29;;;;;;;18.90;12.90;;;;;;;1.22;94.58;96761.83;106169;1254;70295;-81
2023/12/22 08:26:57;;;;;;;18.10;13.10;;;;;;;1.25;94.41;96754.63;106286;1255;73045;-78
2023/12/22 08:29:24;;;;;;;17.60;12.60;;;;;;;1.32;94.13;96751.17;106161;1255;60444;-80
2023/12/22 08:31:51;;;;;;;20.70;13.90;;;;;;;1.30;94.31;96744.95;106236;1257;60448;-80
2023/12/22 08:34:18;;;;;;;18.70;13.40;;;;;;;1.27;94.56;96742.77;106337;1257;73955;-81
2023/12/22 08:36:45;;;;;;;18.40;13.20;;;;;;;1.31;94.45;96749.59;106251;1256;70133;-82
2023/12/22 08:39:12;;;;;;;19.10;13.50;;;;;;;1.38;94.14;96738.04;106327;1258;71869;-77
2023/12/22 08:41:39;;;;;;;21.70;13.90;;;;;;;1.37;94.27;96733.16;106636;1254;60434;-78
2023/12/22 08:44:06;;;;;;;19.90;13.10;;;;;;;1.34;94.63;96731.20;106129;1254;60534;-79
2023/12/22 08:46:34;;;;;;;25.40;15.90;;;;;;;1.41;94.46;96734.58;106000;1259;73640;-79
2023/12/22 08:49:02;;;;;;;23.90;16.20;;;;;;;1.48;94.49;96735.86;106221;1260;69493;-80
2023/12/22 08:51:30;;;;;;;22.70;16.20;;;;;;;1.46;94.63;96720.62;106028;1260;71607;-78
2023/12/22 08:53:56;;;;;;;21.10;13.90;;;;;;;1.43;94.67;96711.33;105987;1259;60690;-75
2023/12/22 08:56:23;;;;;;;19.10;12.70;;;;;;;1.48;94.78;96710.98;108174;1253;60353;-76
2023/12/22 08:58:59;;;;;;;18.60;12.50;;;;;;;1.53;94.61;96705.85;107905;1254;72481;-79
2023/12/22 09:01:26;;;;;;;24.30;14.40;;;;;;;1.50;94.37;96711.53;106606;1253;69034;-80
2023/12/22 09:03:53;;;;;;;23.90;14.20;;;;;;;1.53;94.34;96707.98;106786;1255;71370;-81
2023/12/22 09:06:21;;;;;;;22.10;15.30;;;;;;;1.60;94.23;96709.79;106302;1253;60403;-81
2023/12/22 09:08:49;;;;;;;21.10;14.80;;;;;;;1.57;94.33;96703.95;106218;1259;60509;-79
2023/12/22 09:11:16;;;;;;;20.10;14.60;;;;;;;1.53;94.71;96704.23;106280;1257;73923;-80
2023/12/22 09:13:43;;;;;;;23.80;15.30;;;;;;;1.59;94.73;96708.56;106168;1257;70181;-80
2023/12/22 09:16:11;;;;;;;19.50;13.10;;;;;;;1.66;94.29;96706.14;106138;1256;71464;-80
2023/12/22 09:18:38;;;;;;;20.30;14.20;;;;;;;1.63;94.08;96702.16;106209;1254;60356;-79
2023/12/22 09:21:04;;;;;;;21.60;14.00;;;;;;;1.57;94.18;96713.70;105884;1254;61102;-78
2023/12/22 09:23:31;;;;;;;17.50;12.70;;;;;;;1.59;93.70;96705.80;106103;1254;73852;-79
2023/12/22 09:25:58;;;;;;;21.70;14.30;;;;;;;1.63;93.72;96711.18;106086;1257;69577;-79
2023/12/22 09:28:25;;;;;;;19.30;13.10;;;;;;;1.60;93.51;96709.19;106065;1254;72546;-78
2023/12/22 09:30:52;;;;;;;21.70;14.10;;;;;;;1.62;93.33;96707.02;106187;1254;60886;-78
2023/12/22 09:33:20;;;;;;;18.70;13.70;;;;;;;1.66;93.29;96716.17;106138;1254;60601;-79
2023/12/22 09:35:47;;;;;;;19.60;13.80;;;;;;;1.64;93.30;96703.98;106249;1254;72707;-79
2023/12/22 09:38:14;;;;;;;24.50;14.50;;;;;;;1.60;93.40;96710.71;106232;1254;70331;-77
2023/12/22 09:40:42;;;;;;;19.50;13.10;;;;;;;1.66;92.88;96708.44;106141;1254;72466;-79
2023/12/22 09:43:09;;;;;;;21.20;13.30;;;;;;;1.72;92.21;96696.17;106263;1258;60470;-79
2023/12/22 09:45:37;;;;;;;16.90;12.10;;;;;;;1.70;91.89;96696.95;106950;1259;60252;-77
2023/12/22 09:48:05;;;;;;;18.00;12.60;;;;;;;1.66;91.96;96692.45;108746;1254;73671;-78
2023/12/22 09:50:33;;;;;;;20.30;14.30;;;;;;;1.76;91.76;96696.94;107936;1254;70205;-78
2023/12/22 09:53:00;;;;;;;21.00;14.60;;;;;;;1.83;91.32;96696.04;106149;1254;72690;-79
2023/12/22 09:55:27;;;;;;;20.00;14.80;;;;;;;1.81;91.13;96699.08;106152;1254;60426;-79
2023/12/22 09:57:54;;;;;;;20.50;12.80;;;;;;;1.76;91.26;96704.91;106146;1254;60533;-79
2023/12/22 10:00:21;;;;;;;22.40;13.80;;;;;;;1.79;90.80;96699.52;108535;1253;73873;-77
2023/12/22 10:02:48;;;;;;;18.40;13.00;;;;;;;1.86;90.74;96696.42;109488;1253;68734;-77
2023/12/22 10:05:15;;;;;;;20.20;12.60;;;;;;;1.83;90.54;96699.23;109424;1253;71670;-79
2023/12/22 10:07:42;;;;;;;18.50;13.00;;;;;;;1.71;90.76;96682.33;109420;1253;59355;-78
2023/12/22 10:10:09;;;;;;;18.60;12.50;;;;;;;1.80;91.00;96706.36;109513;1254;60214;-79
2023/12/22 10:12:36;;;;;;;19.60;13.40;;;;;;;1.84;90.80;96691.98;109419;1258;72715;-78
2023/12/22 10:15:03;;;;;;;18.00;13.30;;;;;;;1.78;91.31;96685.24;109399;1254;69394;-79
2023/12/22 10:17:31;;;;;;;17.90;12.50;;;;;;;1.78;91.55;96689.47;109431;1253;71419;-78
2023/12/22 10:19:58;;;;;;;18.30;13.50;;;;;;;1.81;91.64;96681.77;109271;1253;58401;-78
2023/12/22 10:22:28;;;;;;;21.90;14.20;;;;;;;1.81;91.71;96684.49;109531;1254;59298;-79
2023/12/22 10:24:55;;;;;;;17.50;12.10;;;;;;;1.80;92.13;96687.88;109578;1253;72640;-78
2023/12/22 10:27:22;;;;;;;17.10;12.70;;;;;;;1.82;92.18;96689.88;109558;1253;68715;-79
2023/12/22 10:29:55;;;;;;;19.30;14.70;;;;;;;1.75;92.62;96679.09;109538;1253;71501;-79
2023/12/22 10:32:22;;;;;;;19.70;13.90;;;;;;;1.69;93.18;96677.95;109437;1253;59575;-78
2023/12/22 10:34:52;;;;;;;19.50;12.00;;;;;;;1.76;93.22;96667.27;109590;1253;59245;-77
2023/12/22 10:37:21;;;;;;;20.70;14.30;;;;;;;1.76;93.58;96662.30;109533;1254;72414;-78
2023/12/22 10:39:49;;;;;;;21.60;14.40;;;;;;;1.67;93.99;96661.48;109467;1254;69165;-78
2023/12/22 10:42:15;;;;;;;20.30;12.60;;;;;;;1.68;94.14;96663.25;109293;1254;71479;-77
2023/12/22 10:44:43;;;;;;;19.30;12.90;;;;;;;1.75;94.10;96661.18;109411;1253;59635;-77
2023/12/22 10:47:10;;;;;;;22.40;14.40;;;;;;;1.73;94.36;96657.13;109567;1253;59622;-76
2023/12/22 10:49:39;;;;;;;20.20;13.90;;;;;;;1.65;94.90;96654.04;109318;1253;72456;-77
2023/12/22 10:52:23;;;;;;;19.20;14.20;;;;;;;1.66;94.77;96645.60;109547;1253;70390;-78
2023/12/22 10:54:50;;;;;;;20.00;12.90;;;;;;;1.71;94.79;96644.44;109514;1252;72697;-78
2023/12/22 10:57:20;;;;;;;21.80;14.50;;;;;;;1.69;94.86;96648.31;109456;1253;58121;-78
2023/12/22 10:59:47;;;;;;;25.10;15.10;;;;;;;1.65;95.39;96643.81;109521;1254;59040;-78
2023/12/22 11:02:27;;;;;;;23.60;14.90;;;;;;;1.65;95.62;96641.13;109552;1253;72731;-78
2023/12/22 11:05:01;;;;;;;21.70;15.30;;;;;;;1.73;95.40;96640.70;109573;1253;68923;-78
2023/12/22 11:07:29;;;;;;;22.70;15.80;;;;;;;1.72;95.64;96642.71;109502;1253;71366;-78
2023/12/22 11:10:03;;;;;;;23.50;15.40;;;;;;;1.67;95.71;96644.59;109301;1253;59908;-76
2023/12/22 11:12:35;;;;;;;23.70;15.20;;;;;;;1.71;95.70;96642.14;109563;1253;59980;-78
2023/12/22 11:15:03;;;;;;;24.40;16.20;;;;;;;1.77;95.40;96643.55;109542;1252;72661;-78
2023/12/22 11:17:30;;;;;;;28.80;16.50;;;;;;;1.74;95.79;96646.02;109407;1254;70373;-78
2023/12/22 11:19:57;;;;;;;24.90;16.50;;;;;;;1.70;95.90;96634.15;109421;1253;71193;-79
2023/12/22 11:22:24;;;;;;;24.50;17.00;;;;;;;1.76;95.97;96633.00;109400;1254;59867;-79
2023/12/22 11:24:51;;;;;;;24.90;15.50;;;;;;;1.82;95.89;96637.39;109559;1253;58827;-77